Time;durP1;ratioP1;P1;durP2;ratioP2;P2;SDS_P1;SDS_P2;PMS_P1;PMS_P2;Temp;Humidity;BMP_temperature;BMP_pressure;BME280_temperature;BME280_humidity;BME280_pressure;Samples;Min_cycle;Max_cycle;Signal;HPM_P1;HPM_P2
2022/01/20 00:00:29;;;;;;;1.70;1.60;;;;;;;0.95;94.34;96117.44;5042421;28;20682;-81
2022/01/20 00:03:00;;;;;;;2.03;1.70;;;;;;;0.94;95.05;96104.75;5026370;28;20179;-80
2022/01/20 00:26:54;;;;;;;1.30;1.20;;;;;;;0.83;96.53;96118.88;5034482;28;20600;-80
2022/01/20 00:29:26;;;;;;;1.33;1.20;;;;;;;0.83;96.70;96118.06;5019561;28;20217;-80
2022/01/20 00:32:07;;;;;;;1.20;1.10;;;;;;;0.80;97.33;96121.59;5017503;28;20182;-80
2022/01/20 00:37:18;;;;;;;1.73;1.00;;;;;;;0.82;98.01;96127.47;5033735;28;20193;-80
2022/01/20 00:39:44;;;;;;;1.73;1.40;;;;;;;0.81;97.83;96133.47;5034277;28;20178;-81
2022/01/20 00:42:09;;;;;;;1.50;1.00;;;;;;;0.81;97.67;96135.22;5013236;28;20240;-80
2022/01/20 00:44:35;;;;;;;1.53;1.10;;;;;;;0.79;97.86;96137.81;5014423;28;20202;-81
2022/01/20 00:47:00;;;;;;;0.93;0.90;;;;;;;0.80;98.43;96131.00;5029725;28;20185;-80
2022/01/20 00:49:26;;;;;;;0.87;0.80;;;;;;;0.74;98.75;96136.41;5017170;28;20607;-80
2022/01/20 00:51:51;;;;;;;0.83;0.73;;;;;;;0.72;98.76;96151.81;5016781;28;20266;-80
2022/01/20 00:54:16;;;;;;;1.97;1.03;;;;;;;0.84;98.42;96146.09;5034133;28;20251;-80
2022/01/20 00:56:41;;;;;;;1.57;0.90;;;;;;;0.75;98.62;96154.22;5034453;28;20182;-80
2022/01/20 00:59:07;;;;;;;0.87;0.80;;;;;;;0.68;99.01;96150.28;5034760;28;20340;-80
2022/01/20 01:01:32;;;;;;;0.70;0.70;;;;;;;0.69;99.26;96157.06;5033321;28;20552;-80
2022/01/20 01:03:58;;;;;;;0.70;0.70;;;;;;;0.73;98.84;96152.66;5017884;28;20183;-80
2022/01/20 01:06:37;;;;;;;1.23;0.90;;;;;;;0.71;99.48;96159.56;5017717;28;20254;-79
2022/01/20 01:09:04;;;;;;;1.60;0.80;;;;;;;0.60;99.98;96144.72;5020325;28;20205;-80
2022/01/20 01:11:29;;;;;;;0.67;0.60;;;;;;;0.67;99.31;96140.97;5017139;28;20240;-80
2022/01/20 01:13:56;;;;;;;0.80;0.77;;;;;;;0.70;99.48;96148.47;5018123;28;20186;-80
2022/01/20 01:16:32;;;;;;;0.73;0.70;;;;;;;0.75;99.19;96153.41;5017996;28;20186;-80
2022/01/20 01:21:44;;;;;;;0.70;0.70;;;;;;;0.70;99.45;96152.78;5033677;28;20339;-79
2022/01/20 01:24:10;;;;;;;1.10;0.53;;;;;;;0.69;99.00;96153.69;5034633;28;20673;-79
2022/01/20 01:26:36;;;;;;;0.67;0.67;;;;;;;0.79;98.52;96150.59;5034184;28;20265;-79
2022/01/20 01:29:06;;;;;;;0.70;0.70;;;;;;;0.73;99.11;96160.31;5017441;28;20217;-81
2022/01/20 01:31:35;;;;;;;0.87;0.70;;;;;;;0.67;98.56;96161.41;5033953;28;20182;-79
2022/01/20 01:34:06;;;;;;;0.60;0.60;;;;;;;0.76;98.93;96158.44;5018008;28;20264;-79
2022/01/20 01:36:46;;;;;;;0.67;0.67;;;;;;;0.76;99.17;96165.28;5036299;28;20178;-81
2022/01/20 01:39:12;;;;;;;0.60;0.60;;;;;;;0.67;99.51;96158.88;5043766;28;20635;-79
2022/01/20 01:41:38;;;;;;;0.60;0.60;;;;;;;0.78;99.30;96158.34;5037597;28;20194;-79
2022/01/20 01:44:07;;;;;;;0.63;0.60;;;;;;;0.75;99.01;96166.19;5020168;28;20188;-79
2022/01/20 01:46:34;;;;;;;0.70;0.70;;;;;;;0.76;99.04;96157.59;5034820;28;20608;-79
2022/01/20 01:48:59;;;;;;;1.27;0.80;;;;;;;0.75;99.17;96155.94;5037130;28;20260;-79
2022/01/20 01:51:25;;;;;;;1.50;1.00;;;;;;;0.73;99.32;96158.59;5018474;28;20661;-79
2022/01/20 01:53:51;;;;;;;0.77;0.73;;;;;;;0.76;99.67;96162.72;5036577;28;20220;-79
2022/01/20 01:56:16;;;;;;;0.80;0.80;;;;;;;0.73;99.81;96166.25;5019333;28;20221;-79
2022/01/20 01:58:41;;;;;;;1.10;1.00;;;;;;;0.67;100.00;96163.97;5036472;28;20760;-80
2022/01/20 02:01:07;;;;;;;1.10;1.00;;;;;;;0.68;100.00;96172.47;5019478;28;20265;-79
2022/01/20 02:03:41;;;;;;;0.70;0.70;;;;;;;0.69;100.00;96169.84;5035618;28;20188;-78
2022/01/20 02:06:30;;;;;;;1.50;1.10;;;;;;;0.62;100.00;96176.16;5035501;28;20224;-79
2022/01/20 02:09:10;;;;;;;1.60;1.10;;;;;;;0.62;100.00;96175.31;5035613;28;20708;-79
2022/01/20 02:19:54;;;;;;;1.43;1.20;;;;;;;0.80;99.85;96154.00;5016412;28;20209;-79
2022/01/20 02:22:19;;;;;;;1.50;1.40;;;;;;;0.77;100.00;96157.53;5031026;28;20210;-79
2022/01/20 02:24:44;;;;;;;2.03;1.50;;;;;;;0.75;100.00;96159.34;5019264;28;20689;-79
2022/01/20 02:27:10;;;;;;;1.63;1.37;;;;;;;0.73;100.00;96163.69;5035568;28;20589;-79
2022/01/20 02:29:35;;;;;;;1.50;1.20;;;;;;;0.71;100.00;96157.84;5019038;28;20698;-79
2022/01/20 02:32:00;;;;;;;2.13;1.73;;;;;;;0.69;100.00;96161.34;5035390;28;20580;-79
2022/01/20 02:34:29;;;;;;;1.63;1.50;;;;;;;0.72;100.00;96169.72;5035061;28;20183;-79
2022/01/20 02:36:56;;;;;;;2.50;1.60;;;;;;;0.75;100.00;96166.19;5035474;28;20557;-79
2022/01/20 02:39:47;;;;;;;1.47;1.37;;;;;;;0.70;100.00;96171.50;5037799;28;20258;-79
2022/01/20 02:45:02;;;;;;;2.07;1.50;;;;;;;0.61;100.00;96174.47;5020140;28;20205;-79
2022/01/20 02:47:30;;;;;;;1.83;1.67;;;;;;;0.60;100.00;96166.91;5012891;28;20569;-79
2022/01/20 02:49:55;;;;;;;1.63;1.40;;;;;;;0.62;100.00;96163.38;5023345;28;20182;-79
2022/01/20 02:52:23;;;;;;;1.40;1.30;;;;;;;0.68;100.00;96159.69;5019117;28;20628;-79
2022/01/20 02:54:50;;;;;;;1.90;1.70;;;;;;;0.62;100.00;96167.63;5013247;28;20183;-79
2022/01/20 02:57:16;;;;;;;2.77;1.93;;;;;;;0.60;100.00;96170.28;5029236;28;20299;-80
2022/01/20 02:59:42;;;;;;;2.60;1.87;;;;;;;0.64;100.00;96159.03;5035937;28;20284;-79
2022/01/20 03:02:09;;;;;;;2.10;1.90;;;;;;;0.63;100.00;96170.16;5038518;28;20240;-79
2022/01/20 03:04:34;;;;;;;1.90;1.80;;;;;;;0.67;100.00;96158.03;5039172;28;20198;-80
2022/01/20 03:07:00;;;;;;;2.33;2.00;;;;;;;0.70;100.00;96158.72;5021733;28;20196;-80
2022/01/20 03:09:25;;;;;;;2.43;1.93;;;;;;;0.66;100.00;96162.31;5040028;28;20224;-80
2022/01/20 03:11:52;;;;;;;2.87;1.87;;;;;;;0.67;100.00;96166.53;5038134;28;20182;-79
2022/01/20 03:14:18;;;;;;;1.73;1.63;;;;;;;0.59;100.00;96172.91;5038531;28;20174;-79
2022/01/20 03:16:45;;;;;;;2.63;2.20;;;;;;;0.58;100.00;96169.53;5024891;28;20209;-79
2022/01/20 03:19:13;;;;;;;2.40;2.03;;;;;;;0.56;100.00;96161.09;5021916;28;20202;-79
2022/01/20 03:21:43;;;;;;;2.67;2.10;;;;;;;0.46;100.00;96163.28;5035852;28;20178;-80
2022/01/20 03:24:09;;;;;;;2.00;1.80;;;;;;;0.48;100.00;96165.75;5037403;28;20190;-79
2022/01/20 03:26:35;;;;;;;2.67;2.13;;;;;;;0.56;100.00;96159.38;5035280;28;20223;-79
2022/01/20 03:29:01;;;;;;;2.67;2.23;;;;;;;0.50;100.00;96157.09;5020551;28;20588;-79
2022/01/20 03:31:27;;;;;;;2.77;2.50;;;;;;;0.48;100.00;96156.34;5053471;28;20705;-79
2022/01/20 03:33:52;;;;;;;2.53;2.30;;;;;;;0.49;100.00;96157.19;5037730;28;20234;-80
2022/01/20 03:36:18;;;;;;;2.33;2.10;;;;;;;0.52;100.00;96164.69;5020049;28;20220;-79
2022/01/20 03:38:44;;;;;;;2.80;2.50;;;;;;;0.48;100.00;96165.75;5020571;28;20206;-79
2022/01/20 03:41:09;;;;;;;3.03;2.50;;;;;;;0.54;100.00;96153.53;5035849;28;20175;-80
2022/01/20 03:43:35;;;;;;;2.37;2.17;;;;;;;0.55;100.00;96144.94;5036776;28;20181;-79
2022/01/20 03:46:02;;;;;;;2.17;1.97;;;;;;;0.48;100.00;96142.75;5036096;28;20209;-80
2022/01/20 03:48:29;;;;;;;3.37;2.50;;;;;;;0.53;100.00;96151.00;5020815;28;20298;-79
2022/01/20 03:51:02;;;;;;;2.83;2.60;;;;;;;0.54;100.00;96150.13;5035749;28;20185;-79
2022/01/20 03:53:30;;;;;;;3.57;2.73;;;;;;;0.46;100.00;96154.78;5035580;28;20193;-79
2022/01/20 03:55:56;;;;;;;4.27;2.57;;;;;;;0.48;100.00;96147.84;5020286;28;20232;-79
2022/01/20 03:58:21;;;;;;;2.60;2.40;;;;;;;0.49;100.00;96157.19;5035974;28;20198;-79
2022/01/20 04:00:46;;;;;;;3.77;3.37;;;;;;;0.47;100.00;96153.88;5019613;28;20588;-79
2022/01/20 04:03:13;;;;;;;3.87;2.60;;;;;;;0.48;100.00;96158.91;5018967;28;20189;-79
2022/01/20 04:05:48;;;;;;;3.10;2.80;;;;;;;0.52;100.00;96159.59;5035808;28;20770;-79
2022/01/20 04:08:14;;;;;;;2.93;2.70;;;;;;;0.56;100.00;96169.59;5036849;28;20584;-79
2022/01/20 04:10:39;;;;;;;3.07;2.57;;;;;;;0.62;100.00;96171.06;5036771;28;20186;-79
2022/01/20 04:13:04;;;;;;;4.23;3.03;;;;;;;0.64;100.00;96173.53;5037017;28;20186;-79
2022/01/20 04:15:37;;;;;;;2.63;2.43;;;;;;;0.62;100.00;96165.09;5020780;28;20204;-78
2022/01/20 04:18:07;;;;;;;4.53;2.93;;;;;;;0.49;100.00;96164.84;5037968;28;20214;-79
2022/01/20 04:20:32;;;;;;;3.67;2.73;;;;;;;0.51;100.00;96168.97;5019283;28;20193;-78
2022/01/20 04:22:58;;;;;;;4.10;3.13;;;;;;;0.60;100.00;96167.72;5019114;28;20196;-79
2022/01/20 04:25:23;;;;;;;3.83;2.97;;;;;;;0.50;100.00;96169.06;5037273;28;20198;-78
2022/01/20 04:27:48;;;;;;;7.13;2.90;;;;;;;0.51;100.00;96168.97;5036400;28;20213;-79
2022/01/20 04:30:14;;;;;;;3.97;3.00;;;;;;;0.46;100.00;96172.66;5036719;28;20190;-80
2022/01/20 04:32:39;;;;;;;3.03;2.60;;;;;;;0.51;100.00;96174.09;5019250;28;20197;-80
2022/01/20 04:35:04;;;;;;;2.80;2.60;;;;;;;0.44;100.00;96177.84;5036707;28;20544;-79
2022/01/20 04:37:30;;;;;;;2.80;2.50;;;;;;;0.53;100.00;96174.00;5033360;28;20185;-79
2022/01/20 04:39:56;;;;;;;3.30;2.57;;;;;;;0.51;100.00;96171.53;5009457;28;20386;-79
2022/01/20 04:42:24;;;;;;;4.30;2.40;;;;;;;0.58;100.00;96172.09;5026058;28;20555;-80
2022/01/20 04:45:00;;;;;;;3.17;2.40;;;;;;;0.55;100.00;96179.91;5020248;28;20206;-79
2022/01/20 04:47:35;;;;;;;3.23;2.17;;;;;;;0.54;100.00;96173.97;5020963;28;20185;-79
2022/01/20 04:58:12;;;;;;;1.93;1.73;;;;;;;0.54;100.00;96183.34;5038416;28;20216;-79
2022/01/20 05:00:38;;;;;;;2.47;2.00;;;;;;;0.47;100.00;96179.44;5021318;28;20245;-80
2022/01/20 05:03:05;;;;;;;2.80;2.10;;;;;;;0.40;100.00;96178.03;5036091;28;20775;-80
2022/01/20 05:05:32;;;;;;;2.20;2.00;;;;;;;0.43;100.00;96176.16;5038202;28;20190;-79
2022/01/20 05:07:57;;;;;;;2.00;1.80;;;;;;;0.39;100.00;96171.28;5053770;28;20696;-79
2022/01/20 05:10:22;;;;;;;4.20;1.77;;;;;;;0.40;100.00;96181.44;5037277;28;20188;-79
2022/01/20 05:15:20;;;;;;;3.73;2.57;;;;;;;0.36;100.00;96174.00;5031711;28;20190;-79
2022/01/20 05:17:45;;;;;;;2.87;2.20;;;;;;;0.39;100.00;96169.56;5018230;28;20715;-79
2022/01/20 05:20:11;;;;;;;4.80;3.30;;;;;;;0.35;100.00;96164.66;5020803;28;20189;-80
2022/01/20 05:22:36;;;;;;;6.93;3.47;;;;;;;0.32;100.00;96170.72;5020660;28;20193;-79
2022/01/20 05:25:03;;;;;;;6.03;4.00;;;;;;;0.27;100.00;96165.03;5037729;28;20206;-79
2022/01/20 05:27:29;;;;;;;5.23;4.20;;;;;;;0.16;100.00;96168.03;5037126;28;20269;-79
2022/01/20 05:29:55;;;;;;;5.20;3.70;;;;;;;0.30;100.00;96169.97;5036935;28;20193;-79
2022/01/20 05:32:21;;;;;;;6.03;4.60;;;;;;;0.27;100.00;96175.25;5036497;28;20184;-80
2022/01/20 05:34:46;;;;;;;5.10;4.23;;;;;;;0.30;100.00;96164.88;5020235;28;20217;-80
2022/01/20 05:37:11;;;;;;;6.17;4.63;;;;;;;0.37;100.00;96184.13;5019282;28;20190;-81
2022/01/20 05:39:36;;;;;;;7.30;4.73;;;;;;;0.29;100.00;96178.53;5036106;28;20210;-80
2022/01/20 05:42:02;;;;;;;8.53;4.10;;;;;;;0.38;100.00;96179.84;5035160;28;20209;-80
2022/01/20 05:44:27;;;;;;;7.80;4.50;;;;;;;0.38;100.00;96174.75;5036570;28;20190;-80
2022/01/20 05:46:53;;;;;;;5.30;4.13;;;;;;;0.38;100.00;96172.19;5036857;28;20190;-81
2022/01/20 05:49:22;;;;;;;6.67;4.33;;;;;;;0.40;100.00;96180.59;5036676;28;20206;-80
2022/01/20 05:51:49;;;;;;;9.07;6.00;;;;;;;0.43;100.00;96183.00;5004048;28;20185;-80
2022/01/20 05:54:15;;;;;;;7.80;4.33;;;;;;;0.37;100.00;96183.31;5021549;28;20606;-79
2022/01/20 05:56:40;;;;;;;5.73;4.73;;;;;;;0.37;100.00;96180.75;5033954;28;20179;-80
2022/01/20 05:59:06;;;;;;;6.27;4.07;;;;;;;0.35;100.00;96177.41;5028132;28;20224;-80
2022/01/20 06:01:33;;;;;;;4.40;3.23;;;;;;;0.39;100.00;96191.72;5016147;28;20188;-81
2022/01/20 06:03:58;;;;;;;3.70;2.87;;;;;;;0.39;100.00;96191.72;5036785;28;20654;-80
2022/01/20 06:06:23;;;;;;;2.80;2.53;;;;;;;0.43;100.00;96194.06;5020080;28;20212;-79
2022/01/20 06:08:49;;;;;;;2.90;2.30;;;;;;;0.43;100.00;96198.34;5037265;28;20207;-80
2022/01/20 06:11:14;;;;;;;3.60;3.30;;;;;;;0.43;100.00;96190.66;5034087;28;20189;-80
2022/01/20 06:13:39;;;;;;;4.33;2.80;;;;;;;0.37;100.00;96185.88;5021121;28;20182;-80
2022/01/20 06:16:05;;;;;;;3.80;2.40;;;;;;;0.38;100.00;96185.78;5039570;28;20646;-79
2022/01/20 06:18:31;;;;;;;3.10;2.63;;;;;;;0.38;100.00;96188.34;5019131;28;20256;-79
2022/01/20 06:20:57;;;;;;;3.70;2.40;;;;;;;0.36;100.00;96199.53;5036292;28;20947;-77
2022/01/20 06:23:22;;;;;;;2.80;2.20;;;;;;;0.27;100.00;96193.94;5038004;28;20682;-79
2022/01/20 06:25:48;;;;;;;2.10;1.83;;;;;;;0.37;100.00;96201.19;5016509;28;20305;-80
2022/01/20 06:28:14;;;;;;;3.27;2.30;;;;;;;0.33;100.00;96192.81;5039789;28;20201;-80
2022/01/20 06:30:40;;;;;;;4.87;2.67;;;;;;;0.36;100.00;96194.44;5040234;28;20255;-80
2022/01/20 06:33:06;;;;;;;8.10;2.83;;;;;;;0.38;100.00;96205.41;5035483;28;20210;-80
2022/01/20 06:35:31;;;;;;;6.03;3.07;;;;;;;0.38;100.00;96198.56;5034962;28;20705;-80
2022/01/20 06:37:56;;;;;;;9.20;3.70;;;;;;;0.33;100.00;96190.25;5018645;28;20679;-79
2022/01/20 06:40:22;;;;;;;6.13;3.47;;;;;;;0.26;100.00;96184.59;5035198;28;20202;-79
2022/01/20 06:42:47;;;;;;;7.20;3.83;;;;;;;0.24;100.00;96178.75;5034982;28;20186;-80
2022/01/20 06:45:14;;;;;;;20.90;15.07;;;;;;;0.26;100.00;96181.22;5035219;28;20237;-79
2022/01/20 06:47:39;;;;;;;9.43;5.60;;;;;;;0.21;100.00;96176.34;5034431;28;20197;-79
2022/01/20 06:50:08;;;;;;;10.40;4.97;;;;;;;0.24;100.00;96188.97;5018221;28;20183;-80
2022/01/20 06:52:33;;;;;;;11.07;5.20;;;;;;;0.19;100.00;96178.13;5030589;28;20181;-81
2022/01/20 06:55:00;;;;;;;12.67;4.43;;;;;;;0.03;100.00;96179.72;5034643;28;20178;-80
2022/01/20 06:57:25;;;;;;;10.50;5.50;;;;;;;0.05;100.00;96180.47;5017277;28;20183;-81
2022/01/20 06:59:51;;;;;;;10.33;7.00;;;;;;;-0.02;100.00;96189.28;5034646;28;20174;-80
2022/01/20 07:02:16;;;;;;;15.27;7.70;;;;;;;-0.07;100.00;96198.91;5050320;28;20270;-79
2022/01/20 07:04:43;;;;;;;9.37;5.80;;;;;;;-0.17;100.00;96192.53;5017885;28;20206;-80
2022/01/20 07:07:09;;;;;;;13.67;6.77;;;;;;;-0.24;100.00;96178.38;5034078;28;20177;-80
2022/01/20 07:09:34;;;;;;;10.13;5.27;;;;;;;-0.33;100.00;96185.53;5018003;28;20551;-80
2022/01/20 07:12:00;;;;;;;11.20;4.57;;;;;;;-0.40;100.00;96196.91;5033316;28;20196;-80
2022/01/20 07:14:25;;;;;;;12.27;5.40;;;;;;;-0.39;100.00;96200.28;5032935;28;20241;-80
2022/01/20 07:16:51;;;;;;;12.17;6.40;;;;;;;-0.37;100.00;96206.13;5033772;28;20185;-80
2022/01/20 07:19:16;;;;;;;15.07;5.90;;;;;;;-0.36;100.00;96213.72;5017663;28;20209;-81
2022/01/20 07:21:42;;;;;;;13.73;8.17;;;;;;;-0.41;100.00;96214.84;5023306;28;20675;-79
2022/01/20 07:24:07;;;;;;;16.93;10.97;;;;;;;-0.44;100.00;96223.44;5033749;28;20209;-81
2022/01/20 07:26:33;;;;;;;25.43;13.40;;;;;;;-0.44;100.00;96232.81;5033229;28;20210;-81
2022/01/20 07:28:58;;;;;;;18.50;9.60;;;;;;;-0.49;100.00;96227.91;5034128;28;20213;-80
2022/01/20 07:31:24;;;;;;;14.03;7.00;;;;;;;-0.39;100.00;96234.28;5032574;28;20210;-81
2022/01/20 07:33:50;;;;;;;14.23;8.93;;;;;;;-0.39;100.00;96249.59;5016700;28;20235;-80
2022/01/20 07:36:16;;;;;;;17.20;8.23;;;;;;;-0.32;100.00;96258.66;5016688;28;20200;-80
2022/01/20 07:38:41;;;;;;;25.23;9.07;;;;;;;-0.25;100.00;96258.41;5033282;28;20217;-80
2022/01/20 07:41:06;;;;;;;12.73;6.90;;;;;;;-0.20;100.00;96266.69;5016392;28;20231;-80
2022/01/20 07:43:32;;;;;;;17.63;7.30;;;;;;;-0.12;100.00;96275.66;5033076;28;20201;-80
2022/01/20 07:45:57;;;;;;;10.07;6.67;;;;;;;-0.09;100.00;96280.66;5015975;28;20263;-79
2022/01/20 07:48:23;;;;;;;12.63;6.40;;;;;;;0.02;100.00;96287.88;5026289;28;20214;-81
2022/01/20 07:50:48;;;;;;;15.47;7.03;;;;;;;0.07;100.00;96280.00;5033527;28;20269;-80
2022/01/20 07:53:13;;;;;;;15.57;6.93;;;;;;;0.16;100.00;96275.31;5033831;28;20195;-81
2022/01/20 07:55:39;;;;;;;12.90;7.00;;;;;;;0.30;100.00;96269.63;5034245;28;20188;-81
2022/01/20 07:58:05;;;;;;;13.27;7.10;;;;;;;0.33;100.00;96272.03;5032936;28;20297;-81
2022/01/20 08:00:31;;;;;;;15.90;7.87;;;;;;;0.38;99.58;96276.94;5033204;28;20185;-81
2022/01/20 08:02:56;;;;;;;12.43;6.17;;;;;;;0.40;99.31;96285.38;5032678;28;20187;-81
2022/01/20 08:05:21;;;;;;;11.43;6.73;;;;;;;0.37;99.57;96272.72;5033261;28;20214;-81
2022/01/20 08:07:48;;;;;;;11.93;6.70;;;;;;;0.39;99.79;96278.59;5015924;28;20706;-81
2022/01/20 08:10:13;;;;;;;15.10;6.00;;;;;;;0.40;99.08;96275.97;5033070;28;20236;-80
2022/01/20 08:12:39;;;;;;;12.00;5.77;;;;;;;0.46;99.20;96275.69;5032381;28;20590;-80
2022/01/20 08:15:05;;;;;;;9.33;5.67;;;;;;;0.47;99.19;96273.97;5033288;28;20193;-81
2022/01/20 08:17:30;;;;;;;14.30;6.23;;;;;;;0.50;99.13;96268.72;5032540;28;20185;-81
2022/01/20 08:19:55;;;;;;;15.53;6.33;;;;;;;0.53;98.89;96276.25;5033374;28;20191;-82
2022/01/20 08:22:20;;;;;;;10.70;5.27;;;;;;;0.45;98.31;96279.16;5032911;28;20198;-80
2022/01/20 08:24:51;;;;;;;10.00;5.33;;;;;;;0.52;98.11;96283.06;5016671;28;20241;-83
2022/01/20 08:27:17;;;;;;;15.07;6.10;;;;;;;0.58;98.02;96274.31;5033346;28;20815;-81
2022/01/20 08:29:42;;;;;;;13.77;5.73;;;;;;;0.59;97.84;96281.09;5033983;28;20192;-81
2022/01/20 08:32:08;;;;;;;14.60;5.17;;;;;;;0.68;97.43;96278.09;5032216;28;20233;-82
2022/01/20 08:34:34;;;;;;;17.87;5.63;;;;;;;0.63;97.58;96271.56;5016005;28;20645;-82
2022/01/20 08:36:59;;;;;;;14.90;5.33;;;;;;;0.66;96.87;96277.34;5033301;28;20182;-82
2022/01/20 08:41:50;;;;;;;12.93;4.80;;;;;;;0.65;96.44;96288.47;5033046;28;20193;-83
2022/01/20 08:44:15;;;;;;;7.60;3.73;;;;;;;0.67;96.19;96281.56;5032408;28;20193;-82
2022/01/20 08:46:42;;;;;;;15.93;5.00;;;;;;;0.69;96.58;96278.94;5033000;28;20460;-82
2022/01/20 08:49:07;;;;;;;9.43;4.83;;;;;;;0.75;95.87;96269.25;5032540;28;20792;-82
2022/01/20 08:51:32;;;;;;;11.47;4.37;;;;;;;0.92;95.49;96283.84;5032278;28;20185;-82
2022/01/20 08:53:58;;;;;;;7.57;4.47;;;;;;;0.98;95.29;96301.47;5014189;28;20194;-82
2022/01/20 08:56:23;;;;;;;13.13;5.13;;;;;;;1.01;95.29;96303.88;5032722;28;20183;-80
2022/01/20 08:58:48;;;;;;;11.27;4.43;;;;;;;0.92;95.58;96313.69;5015377;28;20238;-81
2022/01/20 09:01:14;;;;;;;16.43;5.43;;;;;;;1.06;95.45;96319.84;5031841;28;20197;-81
2022/01/20 09:03:39;;;;;;;11.10;5.03;;;;;;;1.10;95.62;96325.63;5032654;28;20183;-81
2022/01/20 09:06:06;;;;;;;12.40;5.73;;;;;;;1.08;95.18;96332.56;5032783;28;20220;-82
2022/01/20 09:08:31;;;;;;;16.60;5.30;;;;;;;1.07;96.08;96348.81;5037131;28;20196;-81
2022/01/20 09:10:57;;;;;;;15.03;6.27;;;;;;;1.02;95.49;96343.88;5037964;28;20269;-83
2022/01/20 09:16:06;;;;;;;14.43;6.47;;;;;;;1.07;95.81;96347.06;5018079;28;20197;-81
2022/01/20 09:18:31;;;;;;;11.50;5.83;;;;;;;1.14;95.48;96352.72;5016749;28;20202;-79
2022/01/20 09:20:56;;;;;;;19.80;7.43;;;;;;;1.14;95.29;96357.84;5003690;28;20550;-83
2022/01/20 09:23:22;;;;;;;16.43;7.70;;;;;;;1.17;95.69;96352.59;5011772;28;20244;-79
2022/01/20 09:25:49;;;;;;;15.13;5.87;;;;;;;1.07;95.40;96334.28;5015041;28;20697;-79
2022/01/20 09:28:15;;;;;;;19.03;5.43;;;;;;;1.18;94.95;96328.66;5030754;28;20210;-80
2022/01/20 09:30:41;;;;;;;10.27;4.93;;;;;;;1.28;94.23;96336.72;5014625;28;20269;-79
2022/01/20 09:35:36;;;;;;;10.20;4.83;;;;;;;1.17;93.29;96324.44;5031507;28;20179;-78
2022/01/20 09:38:02;;;;;;;12.40;5.43;;;;;;;1.17;93.63;96316.78;5031002;28;20194;-79
2022/01/20 09:40:29;;;;;;;16.27;5.00;;;;;;;1.24;94.26;96317.31;5014023;28;20206;-78
2022/01/20 09:42:55;;;;;;;20.63;6.20;;;;;;;1.11;93.83;96317.06;5030368;28;20272;-80
2022/01/20 09:45:20;;;;;;;11.83;5.00;;;;;;;1.16;94.53;96327.91;5032391;28;20229;-78
2022/01/20 09:47:46;;;;;;;11.17;4.80;;;;;;;1.21;94.14;96331.06;5031187;28;20201;-78
2022/01/20 09:50:19;;;;;;;14.43;4.93;;;;;;;1.22;93.63;96324.22;5031136;28;20186;-79
2022/01/20 09:52:45;;;;;;;10.70;4.90;;;;;;;1.34;93.25;96323.66;5014624;28;20619;-79
2022/01/20 09:55:11;;;;;;;11.23;5.23;;;;;;;1.24;93.08;96323.28;5030404;28;20720;-79
2022/01/20 09:57:36;;;;;;;18.63;5.93;;;;;;;1.10;94.08;96325.63;5030609;28;20182;-79
2022/01/20 10:00:04;;;;;;;13.10;5.33;;;;;;;1.21;94.33;96325.94;5014363;28;20221;-80
2022/01/20 10:02:29;;;;;;;14.80;5.17;;;;;;;1.48;93.31;96326.38;5031621;28;20242;-79
2022/01/20 10:04:56;;;;;;;13.40;5.23;;;;;;;1.57;92.23;96318.25;5013913;28;20704;-79
2022/01/20 10:07:22;;;;;;;10.93;4.87;;;;;;;1.67;91.43;96326.31;5013496;28;20182;-79
2022/01/20 10:09:49;;;;;;;11.87;4.60;;;;;;;1.70;91.73;96341.56;5030358;28;20369;-79
2022/01/20 10:12:17;;;;;;;14.83;5.10;;;;;;;1.72;91.97;96344.84;5029954;28;20194;-78
2022/01/20 10:14:51;;;;;;;10.63;4.30;;;;;;;1.48;92.32;96351.16;5030834;28;20174;-78
2022/01/20 10:17:21;;;;;;;15.60;6.10;;;;;;;1.65;91.96;96356.28;5027968;28;20175;-78
2022/01/20 10:19:51;;;;;;;13.47;5.27;;;;;;;1.62;91.85;96357.28;5013624;28;20178;-80
2022/01/20 10:22:21;;;;;;;12.10;5.43;;;;;;;1.69;92.09;96355.25;5029439;28;20244;-77
2022/01/20 10:25:09;;;;;;;18.50;6.50;;;;;;;1.56;92.38;96359.28;5030639;28;20182;-78
2022/01/20 10:27:46;;;;;;;11.00;5.60;;;;;;;1.40;93.51;96360.00;5031427;28;20185;-79
2022/01/20 10:30:11;;;;;;;12.57;4.53;;;;;;;1.45;93.73;96356.41;5014085;28;20277;-78
2022/01/20 10:32:43;;;;;;;10.70;4.67;;;;;;;1.42;92.90;96363.34;5029486;28;20677;-80
2022/01/20 10:35:11;;;;;;;11.00;4.97;;;;;;;1.48;93.44;96357.09;5029958;28;20205;-78
2022/01/20 10:37:41;;;;;;;15.07;5.87;;;;;;;1.39;93.19;96358.34;5014024;28;20196;-80
2022/01/20 10:40:10;;;;;;;11.60;5.97;;;;;;;1.50;93.23;96355.28;5029642;28;20221;-81
2022/01/20 10:42:40;;;;;;;7.90;4.40;;;;;;;1.59;92.54;96365.13;5030185;28;20185;-78
2022/01/20 10:45:06;;;;;;;13.10;4.70;;;;;;;1.74;92.14;96350.72;5014626;28;20325;-78
2022/01/20 10:47:36;;;;;;;8.67;4.20;;;;;;;1.57;92.45;96366.06;5018956;28;20194;-78
2022/01/20 10:50:16;;;;;;;27.73;10.07;;;;;;;1.41;93.47;96361.69;5027986;28;20190;-79
2022/01/20 10:52:45;;;;;;;12.47;5.03;;;;;;;1.44;93.16;96350.47;5009800;28;20199;-80
2022/01/20 10:55:21;;;;;;;12.20;5.17;;;;;;;1.50;93.10;96364.69;5029186;28;20189;-81
2022/01/20 10:57:46;;;;;;;16.60;5.40;;;;;;;1.56;93.22;96356.72;5045668;28;20272;-81
2022/01/20 11:00:15;;;;;;;20.07;5.80;;;;;;;1.51;93.38;96351.03;5030868;28;20186;-80
2022/01/20 11:02:41;;;;;;;12.33;5.47;;;;;;;1.54;92.82;96361.09;5032503;28;20243;-80
2022/01/20 11:05:07;;;;;;;9.27;5.47;;;;;;;1.61;92.82;96357.34;5032238;28;20709;-79
2022/01/20 11:07:33;;;;;;;14.57;6.73;;;;;;;1.57;91.89;96350.72;5032785;28;20181;-80
2022/01/20 11:10:04;;;;;;;14.80;5.20;;;;;;;1.49;93.16;96356.19;5016780;28;20202;-78
2022/01/20 11:12:30;;;;;;;9.53;5.10;;;;;;;1.57;92.58;96345.59;5033991;28;20178;-78
2022/01/20 11:14:57;;;;;;;6.53;5.13;;;;;;;1.57;92.10;96343.03;5032453;28;20583;-80
2022/01/20 11:17:29;;;;;;;11.73;5.93;;;;;;;1.60;92.49;96330.09;5016631;28;20557;-79
2022/01/20 11:20:06;;;;;;;13.30;5.33;;;;;;;1.60;91.04;96328.38;5016781;28;20177;-79
2022/01/20 11:22:32;;;;;;;11.10;4.37;;;;;;;1.76;90.34;96322.47;5030578;28;20198;-80
2022/01/20 11:24:59;;;;;;;11.67;4.70;;;;;;;1.69;89.79;96314.28;5031859;28;20213;-79
2022/01/20 11:27:45;;;;;;;15.47;4.60;;;;;;;1.72;89.87;96314.13;5033478;28;20178;-81
2022/01/20 11:30:26;;;;;;;9.07;3.83;;;;;;;1.75;89.55;96316.53;5032925;28;20208;-80
2022/01/20 11:33:06;;;;;;;9.67;4.77;;;;;;;1.67;89.71;96321.19;5017269;28;20181;-81
2022/01/20 11:35:59;;;;;;;10.47;4.70;;;;;;;1.53;91.16;96318.50;5029140;28;20559;-80
2022/01/20 11:38:38;;;;;;;10.47;5.33;;;;;;;1.54;91.10;96320.97;5034329;28;20673;-79
2022/01/20 11:41:05;;;;;;;12.63;6.80;;;;;;;1.61;91.12;96317.22;5034023;28;20190;-79
2022/01/20 11:43:36;;;;;;;14.73;6.40;;;;;;;1.51;92.01;96320.31;5032856;28;20268;-80
2022/01/20 11:46:06;;;;;;;15.90;6.87;;;;;;;1.70;91.48;96310.81;5032886;28;20213;-79
2022/01/20 11:48:32;;;;;;;13.97;6.47;;;;;;;1.75;91.41;96300.34;5013970;28;20194;-80
2022/01/20 11:51:06;;;;;;;17.33;6.17;;;;;;;1.83;90.56;96308.47;5037481;28;20197;-78
2022/01/20 11:53:32;;;;;;;11.93;7.40;;;;;;;1.92;90.34;96302.91;5016165;28;20174;-79
2022/01/20 11:55:57;;;;;;;11.43;6.33;;;;;;;2.04;89.56;96304.84;5032922;28;20669;-78
2022/01/20 11:58:24;;;;;;;11.57;6.23;;;;;;;2.01;89.59;96304.16;5032955;28;20210;-79
2022/01/20 12:01:10;;;;;;;12.03;7.40;;;;;;;2.21;89.05;96306.56;5033149;28;20685;-80
2022/01/20 12:03:37;;;;;;;12.07;5.97;;;;;;;2.14;88.47;96302.66;5014015;28;20264;-78
2022/01/20 12:06:05;;;;;;;8.77;4.53;;;;;;;2.09;87.34;96294.38;5016161;28;20198;-79
2022/01/20 12:08:30;;;;;;;8.47;4.20;;;;;;;1.99;86.88;96279.47;5015341;28;20202;-80
2022/01/20 12:11:12;;;;;;;9.13;5.80;;;;;;;2.08;87.11;96288.41;5031696;28;20200;-79
2022/01/20 12:13:53;;;;;;;6.97;4.13;;;;;;;2.10;86.88;96272.97;5032789;28;20181;-77
2022/01/20 12:16:19;;;;;;;8.73;4.63;;;;;;;2.14;86.95;96277.88;5015691;28;20244;-78
2022/01/20 12:18:52;;;;;;;10.33;4.50;;;;;;;2.10;86.84;96280.66;5029138;28;20217;-80
2022/01/20 12:21:18;;;;;;;8.63;4.80;;;;;;;2.09;87.04;96287.50;5019960;28;20273;-78
2022/01/20 12:23:45;;;;;;;9.83;5.13;;;;;;;1.83;88.20;96281.13;5028994;28;20568;-78
2022/01/20 12:26:10;;;;;;;14.23;5.07;;;;;;;1.91;87.87;96289.25;5028971;28;20203;-79
2022/01/20 12:28:35;;;;;;;13.90;4.70;;;;;;;1.82;88.36;96294.84;5028938;28;20202;-79
2022/01/20 12:31:16;;;;;;;11.63;4.37;;;;;;;1.69;87.75;96293.81;5043910;28;20193;-80